ADDS METAR Data INFO
IDs: Format: Raw Decoded Include TAF

Data at: 2153 UTC 24 Feb 2018

METAR for:KZZV (Zanesville Muni, OH, US)
Text:KZZV 242053Z AUTO 09008KT 10SM OVC010 11/08 A3000 RMK AO2 SLP160 60002 T01060078 58017
Temperature: 10.6°C ( 51°F)
Dewpoint: 7.8°C ( 46°F) [RH = 83%]
Pressure (altimeter):30.00 inches Hg (1016.0 mb) [Sea level pressure: 1016.0 mb]
Winds:from the E (90 degrees) at 9 MPH (8 knots; 4.1 m/s)
Visibility:10 or more sm (16+ km)
Ceiling:1000 feet AGL
Clouds: overcast cloud deck at 1000 feet AGL
QC Flag:automated observation with no human augmentation